Latest Weather Observations for Oenpelli Airport

IDD60801

Issued at 3:01 pm CST Tuesday 26 May 2015 (issued every 30 minutes, with the page automatically refreshed every 10 minutes)

About weather observations | Map of weather stations | Latest weather observations for NT | Other Formats
Station Details ID: 014310 Name: OENPELLI AIRPORT Lat: -12.33 Lon: 133.01 Height: 7.5 m
Data from the previous 72 hours. | See also: Recent months for locations in Northern Territory
Date/Time
CST
Temp
°C
App
Temp
°C
Dew
Point
Rel
Hum
%
Delta-T
°C
Wind Press
QNH
hPa
Press
MSL
hPa
Rain
since 9 am
mm
Dir
 
Spd
km/h
Gust
km/h
Spd
kts
Gust
kts
26/03:00pm 35.0 33.7 16.8 34 11.6 E 19 28 10 15 1011.7 1011.6 0.0
26/02:30pm 34.5 33.8 16.4 34 11.5 E 15 26 8 14 1012.2 1012.1 0.0
26/02:00pm 35.3 34.7 16.6 33 11.9 ESE 15 24 8 13 1012.5 1012.4 0.0
26/01:30pm 34.3 32.9 16.6 34 11.2 ESE 19 28 10 15 1013.0 1012.9 0.0
26/01:00pm 34.4 33.1 17.2 36 11.0 ENE 20 30 11 16 1013.4 1013.3 0.0
26/12:30pm 34.6 33.5 17.3 35 11.1 E 19 32 10 17 1014.1 1014.0 0.0
26/12:00pm 33.6 31.9 17.3 37 10.4 E 22 30 12 16 1014.5 1014.4 0.0
26/11:30am 34.2 33.1 17.8 37 10.6 E 20 32 11 17 1015.0 1014.9 0.0
26/11:00am 33.3 32.6 18.3 41 9.7 E 19 28 10 15 1015.5 1015.4 0.0
26/10:30am 32.2 31.4 18.0 42 9.1 ESE 19 30 10 16 1015.9 1015.8 0.0
26/10:00am 31.4 30.4 18.0 44 8.6 ESE 20 28 11 15 1016.2 1016.1 0.0
26/09:30am 30.6 29.3 17.3 45 8.4 E 20 33 11 18 1016.4 1016.3 0.0
26/09:00am 29.9 28.4 16.3 43 8.5 E 19 28 10 15 1016.3 1016.2 0.0
26/08:30am 29.3 28.1 16.1 44 8.2 ESE 17 35 9 19 1015.9 1015.8 0.0
26/08:00am 28.4 27.7 16.3 47 7.5 ESE 15 24 8 13 1015.7 1015.6 0.0
26/07:30am 27.3 27.2 16.9 53 6.5 ESE 13 20 7 11 1015.8 1015.7 0.0
26/07:00am 27.2 26.9 17.4 55 6.2 ESE 15 26 8 14 1015.7 1015.6 0.0
26/06:30am 27.4 26.8 17.6 55 6.2 ESE 17 26 9 14 1015.3 1015.2 0.0
26/06:00am 27.3 28.0 18.0 56 5.9 SE 11 19 6 10 1015.2 1015.1 0.0
26/05:30am 27.1 28.6 18.9 61 5.3 ESE 9 15 5 8 1015.0 1014.9 0.0
26/05:00am 27.0 28.7 19.4 63 4.9 ESE 9 15 5 8 1015.1 1015.0 0.0
26/04:30am 27.0 28.4 19.6 64 4.8 ESE 11 17 6 9 1014.9 1014.8 0.0
26/04:00am 26.8 28.8 19.9 66 4.5 SE 9 17 5 9 1014.7 1014.6 0.0
26/03:30am 26.8 29.3 20.2 67 4.3 SE 7 11 4 6 1014.7 1014.6 0.0
26/03:00am 25.8 29.0 20.4 72 3.5 NNW 4 6 2 3 1014.7 1014.6 0.0
26/02:30am 25.0 29.1 20.7 77 2.8 CALM 0 0 0 0 1014.9 1014.8 0.0
26/02:00am 24.7 29.1 21.4 82 2.2 CALM 0 4 0 2 1015.1 1015.0 0.0
26/01:30am 23.9 27.6 20.0 79 2.5 CALM 0 4 0 2 1015.4 1015.3 0.0
26/01:00am 24.3 28.0 20.0 77 2.8 CALM 0 4 0 2 1015.6 1015.5 0.0
26/12:30am 24.4 28.3 20.3 78 2.7 CALM 0 0 0 0 1015.6 1015.5 0.0
26/12:00am 25.4 29.6 20.9 76 3.0 CALM 0 0 0 0 1015.9 1015.8 0.0
 
Date/Time
CST
Temp
°C
App
Temp
°C
Dew
Point
Rel
Hum
%
Delta-T
°C
Wind Press
QNH
hPa
Press
MSL
hPa
Rain
since 9 am
mm
Dir
 
Spd
km/h
Gust
km/h
Spd
kts
Gust
kts
25/11:30pm 26.1 29.6 19.5 67 4.3 CALM 0 2 0 1 1016.0 1015.9 0.0
25/11:00pm 26.6 29.7 19.5 65 4.6 NW 2 2 1 1 1016.1 1016.0 0.0
25/10:30pm 26.9 30.4 19.5 64 4.8 CALM 0 0 0 0 1016.3 1016.2 0.0
25/10:00pm 27.3 30.7 19.4 62 5.1 CALM 0 2 0 1 1016.2 1016.1 0.0
25/09:30pm 27.5 29.6 19.0 59 5.5 ENE 6 7 3 4 1015.9 1015.8 0.0
25/09:00pm 27.3 29.7 18.9 60 5.4 NE 4 6 2 3 1015.6 1015.5 0.0
25/08:30pm 27.7 30.3 19.2 60 5.5 ENE 4 6 2 3 1015.2 1015.1 0.0
25/08:00pm 27.7 31.0 19.0 59 5.6 CALM 0 0 0 0 1014.8 1014.7 0.0
25/07:30pm 28.6 31.9 19.2 56 6.1 CALM 0 0 0 0 1014.3 1014.2 0.0
25/07:00pm 28.6 31.6 19.2 56 6.1 NE 2 2 1 1 1013.8 1013.7 0.0
25/06:30pm 29.5 31.4 18.6 52 7.0 NNE 6 7 3 4 1013.7 1013.6 0.0
25/06:00pm 30.9 32.3 17.9 45 8.3 NNE 7 11 4 6 1013.3 1013.2 0.0
25/05:30pm 32.2 33.2 17.7 42 9.3 NE 9 15 5 8 1013.0 1012.9 0.0
25/05:00pm 33.5 32.8 15.5 34 11.2 NE 13 19 7 10 1012.8 1012.7 0.0
25/04:30pm 33.9 33.8 14.9 32 11.8 NE 9 20 5 11 1012.8 1012.7 0.0
25/04:00pm 34.1 33.7 15.1 32 11.8 ENE 11 17 6 9 1012.7 1012.6 0.0
25/03:30pm 34.3 34.3 16.2 34 11.4 ENE 11 19 6 10 1012.6 1012.5 0.0
25/03:00pm 34.2 33.6 15.6 32 11.7 ENE 13 22 7 12 1012.8 1012.7 0.0
25/02:30pm 34.1 33.3 16.0 34 11.4 NE 15 22 8 12 1013.0 1012.9 0.0
25/02:00pm 33.3 33.1 16.6 36 10.6 NE 13 19 7 10 1013.5 1013.4 0.0
25/01:30pm 33.7 34.4 17.0 37 10.6 ESE 9 17 5 9 1014.0 1013.9 0.0
25/01:00pm 32.9 32.3 16.7 38 10.3 NE 15 24 8 13 1014.4 1014.3 0.0
25/12:30pm 32.5 32.1 17.2 40 9.7 ENE 15 22 8 12 1014.8 1014.7 0.0
25/12:00pm 31.9 31.8 17.8 43 9.0 ENE 15 26 8 14 1015.4 1015.3 0.0
25/11:30am 31.2 30.6 17.5 44 8.7 ENE 17 24 9 13 1015.7 1015.6 0.0
25/11:00am 31.4 31.0 18.0 44 8.6 E 17 24 9 13 1016.0 1015.9 0.0
25/10:30am 30.2 29.2 17.6 46 8.0 ENE 19 28 10 15 1016.1 1016.0 0.0
25/10:00am 29.6 28.7 17.8 49 7.5 ENE 19 28 10 15 1016.3 1016.2 0.0
25/09:30am 29.1 28.9 18.5 52 6.8 E 17 24 9 13 1016.4 1016.3 0.0
25/09:00am 28.1 28.3 18.5 56 6.1 ENE 15 24 8 13 1016.5 1016.4 0.0
25/08:30am 27.4 27.7 17.8 55 6.1 E 13 20 7 11 1016.4 1016.3 0.0
25/08:00am 26.2 26.6 17.3 58 5.6 E 11 20 6 11 1016.3 1016.2 0.0
25/07:30am 25.3 26.8 16.7 59 5.3 ESE 4 7 2 4 1015.8 1015.7 0.0
25/07:00am 24.8 25.2 16.2 58 5.3 ESE 9 15 5 8 1015.8 1015.7 0.0
25/06:30am 25.3 26.1 16.4 57 5.5 ESE 7 13 4 7 1015.5 1015.4 0.0
25/06:00am 24.8 25.7 16.2 58 5.3 E 6 6 3 3 1015.2 1015.1 0.0
25/05:30am 24.8 25.5 16.0 58 5.4 E 7 9 4 5 1015.0 1014.9 0.0
25/05:00am 24.7 25.8 15.6 57 5.5 E 4 7 2 4 1014.9 1014.8 0.0
25/04:30am 24.7 24.8 15.6 57 5.5 ESE 9 15 5 8 1014.9 1014.8 0.0
25/04:00am 25.0 24.4 15.6 56 5.7 ESE 13 20 7 11 1014.8 1014.7 0.0
25/03:30am 25.3 25.8 15.6 55 5.9 SE 7 13 4 7 1014.9 1014.8 0.0
25/03:00am 25.3 25.1 14.7 51 6.3 SE 9 17 5 9 1015.1 1015.0 0.0
25/02:30am 25.4 25.6 14.8 52 6.3 SE 7 13 4 7 1015.2 1015.1 0.0
25/02:00am 22.9 25.5 17.6 72 3.3 CALM 0 4 0 2 1015.4 1015.3 0.0
25/01:30am 22.6 25.0 16.9 70 3.5 CALM 0 0 0 0 1015.4 1015.3 0.0
25/01:00am 22.1 24.3 18.3 79 2.4 S 4 7 2 4 1015.7 1015.6 0.0
25/12:30am 21.8 24.1 16.7 73 3.1 CALM 0 6 0 3 1016.0 1015.9 0.0
25/12:00am 21.8 23.9 16.3 71 3.3 CALM 0 0 0 0 1015.8 1015.7 0.0
 
Date/Time
CST
Temp
°C
App
Temp
°C
Dew
Point
Rel
Hum
%
Delta-T
°C
Wind Press
QNH
hPa
Press
MSL
hPa
Rain
since 9 am
mm
Dir
 
Spd
km/h
Gust
km/h
Spd
kts
Gust
kts
24/11:30pm 22.1 24.3 16.6 71 3.3 CALM 0 0 0 0 1015.9 1015.8 0.0
24/11:00pm 23.8 25.2 16.3 63 4.6 NNE 4 6 2 3 1016.0 1015.9 0.0
24/10:30pm 22.7 25.0 16.7 69 3.7 CALM 0 0 0 0 1015.8 1015.7 0.0
24/10:00pm 23.8 24.2 14.8 57 5.4 NNE 6 7 3 4 1015.7 1015.6 0.0
24/09:30pm 23.4 24.2 14.7 58 5.2 ENE 4 4 2 2 1015.4 1015.3 0.0
24/09:00pm 24.9 25.3 14.7 53 6.1 ENE 6 7 3 4 1015.1 1015.0 0.0
24/08:30pm 25.5 25.5 14.3 50 6.7 ENE 7 9 4 5 1014.7 1014.6 0.0
24/08:00pm 25.3 25.6 14.4 50 6.5 ENE 6 6 3 3 1014.2 1014.1 0.0
24/07:30pm 26.4 26.6 14.8 49 7.0 ENE 7 9 4 5 1013.8 1013.7 0.0
24/07:00pm 27.0 27.4 14.7 47 7.4 NE 6 9 3 5 1013.5 1013.4 0.0
24/06:30pm 27.8 28.2 14.8 45 7.9 NE 6 7 3 4 1013.1 1013.0 0.0
24/06:00pm 29.5 29.5 13.7 38 9.5 NNE 6 7 3 4 1012.7 1012.6 0.0
24/05:30pm 31.5 31.2 13.3 33 10.9 NE 7 11 4 6 1012.4 1012.3 0.0
24/05:00pm 33.0 31.2 10.9 26 12.8 NE 11 15 6 8 1012.1 1012.0 0.0
24/04:30pm 33.6 31.6 10.2 24 13.5 NE 11 15 6 8 1012.0 1011.9 0.0
24/04:00pm 33.9 32.8 9.9 23 13.8 N 6 13 3 7 1012.0 1011.9 0.0
24/03:30pm 33.7 31.2 8.3 21 14.2 NE 11 15 6 8 1012.0 1011.9 0.0
24/03:00pm 33.5 30.8 7.5 20 14.4 NE 11 17 6 9 1012.2 1012.1 0.0
24/02:30pm 33.8 32.7 8.4 21 14.3 NE 4 9 2 5 1012.3 1012.2 0.0
24/02:00pm 33.6 31.3 7.6 20 14.4 ESE 9 20 5 11 1012.6 1012.5 0.0
24/01:30pm 33.1 30.0 7.1 20 14.2 ENE 13 22 7 12 1012.9 1012.8 0.0
24/01:00pm 32.2 29.3 6.4 20 13.9 E 11 22 6 12 1013.3 1013.2 0.0
24/12:30pm 31.8 27.9 5.3 19 14.0 E 15 24 8 13 1013.9 1013.8 0.0
24/12:00pm 31.6 27.8 5.9 20 13.7 E 15 24 8 13 1014.3 1014.2 0.0
24/11:30am 30.9 27.9 6.0 21 13.2 E 11 19 6 10 1014.9 1014.8 0.0
24/11:00am 29.8 25.7 4.4 20 13.1 ESE 15 20 8 11 1015.3 1015.2 0.0
24/10:30am 29.3 24.9 4.7 21 12.7 ESE 17 28 9 15 1015.5 1015.4 0.0
24/10:00am 28.4 23.2 5.3 23 12.0 ESE 22 30 12 16 1015.7 1015.6 0.0
24/09:30am 27.5 22.9 5.7 25 11.3 E 19 32 10 17 1015.8 1015.7 0.0
24/09:00am 26.5 23.7 7.0 29 10.3 E 11 20 6 11 1015.8 1015.7 0.0
24/08:30am 25.3 23.9 8.7 35 9.0 NE 6 11 3 6 1015.6 1015.5 0.0
24/08:00am 23.2 23.0 11.9 49 6.4 NNE 4 9 2 5 1015.4 1015.3 0.0
24/07:30am 18.4 20.2 15.6 84 1.6 CALM 0 2 0 1 1015.3 1015.2 0.0
24/07:00am 16.5 17.5 14.3 87 1.3 N 2 6 1 3 1014.9 1014.8 0.0
24/06:30am 17.1 18.6 14.6 85 1.4 CALM 0 0 0 0 1014.9 1014.8 0.0
24/06:00am 18.2 19.1 15.1 82 1.8 NE 4 6 2 3 1014.7 1014.6 0.0
24/05:30am 19.1 19.4 16.1 83 1.8 NNE 9 11 5 6 1014.5 1014.4 0.0
24/05:00am 18.4 19.5 15.5 83 1.7 NNE 4 7 2 4 1014.5 1014.4 0.0
24/04:30am 18.2 19.6 14.5 79 2.1 CALM 0 0 0 0 1014.5 1014.4 0.0
24/04:00am 19.0 20.3 15.1 78 2.3 N 2 4 1 2 1014.3 1014.2 0.0
24/03:30am 19.9 20.6 14.5 71 3.1 NNE 4 6 2 3 1014.3 1014.2 0.0
24/03:00am 20.5 22.2 15.1 71 3.2 CALM 0 6 0 3 1014.5 1014.4 0.0
24/02:30am 22.9 22.7 13.7 56 5.3 E 7 9 4 5 1014.6 1014.5 0.0
24/02:00am 23.6 23.6 13.5 53 5.9 E 6 9 3 5 1014.7 1014.6 0.0
24/01:30am 24.7 24.0 13.3 49 6.6 ESE 9 17 5 9 1014.9 1014.8 0.0
24/01:00am 25.2 24.0 12.8 46 7.2 ESE 11 15 6 8 1014.9 1014.8 0.0
24/12:30am 25.8 24.7 13.0 45 7.4 ESE 11 15 6 8 1015.0 1014.9 0.0
24/12:00am 24.6 24.2 12.9 48 6.8 E 7 9 4 5 1015.0 1014.9 0.0
 
Date/Time
CST
Temp
°C
App
Temp
°C
Dew
Point
Rel
Hum
%
Delta-T
°C
Wind Press
QNH
hPa
Press
MSL
hPa
Rain
since 9 am
mm
Dir
 
Spd
km/h
Gust
km/h
Spd
kts
Gust
kts
23/11:30pm 25.6 25.1 12.8 45 7.4 ESE 7 9 4 5 1014.9 1014.8 0.0
23/11:00pm 25.5 25.2 12.7 45 7.4 ESE 6 9 3 5 1014.9 1014.8 0.0
23/10:30pm 26.4 25.9 12.8 43 7.9 ESE 7 13 4 7 1014.9 1014.8 0.0
23/10:00pm 25.8 25.5 13.3 46 7.3 ESE 7 11 4 6 1014.8 1014.7 0.0
23/09:30pm 26.5 26.4 13.9 45 7.5 ESE 7 13 4 7 1014.6 1014.5 0.0
23/09:00pm 26.2 26.2 14.3 48 7.1 ESE 7 7 4 4 1014.3 1014.2 0.0
23/08:30pm 26.3 26.6 14.4 48 7.1 E 6 6 3 3 1014.1 1014.0 0.0
23/08:00pm 26.7 27.5 14.8 48 7.2 E 4 6 2 3 1013.8 1013.7 0.0
23/07:30pm 27.3 28.3 15.3 48 7.3 ENE 4 6 2 3 1013.4 1013.3 0.0
23/07:00pm 27.8 28.4 15.8 48 7.4 NNE 7 9 4 5 1013.3 1013.2 0.0
23/06:30pm 29.8 29.4 13.1 36 9.9 ESE 7 9 4 5 1012.8 1012.7 0.0
23/06:00pm 31.2 30.7 12.5 31 11.1 ESE 7 9 4 5 1012.4 1012.3 0.0
23/05:30pm 32.1 31.1 12.3 29 11.7 SE 9 13 5 7 1012.1 1012.0 0.0
23/05:00pm 33.1 31.9 11.6 27 12.6 SE 9 17 5 9 1011.7 1011.6 0.0
23/04:30pm 33.6 32.1 12.0 27 12.8 SE 11 22 6 12 1011.5 1011.4 0.0
23/04:00pm 33.6 32.3 12.6 28 12.6 SE 11 20 6 11 1011.5 1011.4 0.0
23/03:30pm 34.1 33.0 11.9 26 13.2 E 9 19 5 10 1011.7 1011.6 0.0

Other Formats:

Comma delimited format used in spreadsheet applications
http://www.bom.gov.au/fwo/IDD60801/IDD60801.94110.axf

JavaScript Object Notation format (JSON) in row-major order
http://www.bom.gov.au/fwo/IDD60801/IDD60801.94110.json